Time;durP1;ratioP1;P1;durP2;ratioP2;P2;SDS_P1;SDS_P2;PMS_P1;PMS_P2;Temp;Humidity;BMP_temperature;BMP_pressure;BME280_temperature;BME280_humidity;BME280_pressure;Samples;Min_cycle;Max_cycle;Signal;HPM_P1;HPM_P2
2023/02/15 00:00:56;;;;;;;215.40;36.95;;;;;;;-3.01;100.00;97504.59;2106974;28;20040;-75
2023/02/15 00:01:57;;;;;;;138.35;33.90;;;;;;;-2.98;100.00;97517.41;2107264;28;20052;-74
2023/02/15 00:02:59;;;;;;;134.00;30.80;;;;;;;-3.08;100.00;97511.16;2107126;28;20043;-74
2023/02/15 00:04:00;;;;;;;229.43;39.17;;;;;;;-2.99;100.00;97510.59;2098065;28;20044;-74
2023/02/15 00:05:01;;;;;;;322.85;45.67;;;;;;;-3.11;100.00;97511.09;2098332;28;20067;-74
2023/02/15 00:06:02;;;;;;;418.58;53.15;;;;;;;-3.14;100.00;97490.66;2098270;28;20037;-74
2023/02/15 00:07:04;;;;;;;304.02;44.08;;;;;;;-3.07;100.00;97506.94;2098503;28;20036;-76
2023/02/15 00:08:05;;;;;;;280.27;44.50;;;;;;;-3.03;100.00;97506.22;2107309;28;20067;-76
2023/02/15 00:09:06;;;;;;;243.98;41.05;;;;;;;-2.96;100.00;97503.06;2098205;28;20041;-76
2023/02/15 00:10:07;;;;;;;149.23;34.35;;;;;;;-2.97;100.00;97494.56;2090025;28;20033;-76
2023/02/15 00:11:10;;;;;;;151.90;28.33;;;;;;;-2.94;100.00;97497.22;2098137;28;20485;-76
2023/02/15 00:12:11;;;;;;;243.95;38.28;;;;;;;-2.90;100.00;97490.53;2107017;28;20506;-76
2023/02/15 00:13:12;;;;;;;284.38;45.45;;;;;;;-3.13;100.00;97474.59;2098271;28;20032;-76
2023/02/15 00:14:15;;;;;;;243.13;40.55;;;;;;;-3.08;100.00;97498.47;2098309;28;20048;-76
2023/02/15 00:15:16;;;;;;;265.48;38.85;;;;;;;-3.13;100.00;97497.47;2107007;28;20040;-76
2023/02/15 00:16:17;;;;;;;445.98;50.83;;;;;;;-3.17;100.00;97495.66;2106959;28;20050;-76
2023/02/15 00:17:19;;;;;;;190.45;30.25;;;;;;;-3.24;100.00;97496.28;2107007;28;20039;-76
2023/02/15 00:18:20;;;;;;;157.85;31.17;;;;;;;-3.22;100.00;97495.50;2106877;28;20487;-76
2023/02/15 00:19:21;;;;;;;235.40;35.08;;;;;;;-3.32;100.00;97488.41;2097843;28;20024;-76
2023/02/15 00:20:22;;;;;;;284.10;38.78;;;;;;;-3.30;100.00;97491.03;2097860;28;20036;-76
2023/02/15 00:21:23;;;;;;;346.58;46.10;;;;;;;-3.28;100.00;97490.25;2106774;28;20032;-76
2023/02/15 00:22:25;;;;;;;150.88;33.85;;;;;;;-3.30;100.00;97491.88;2106931;28;20348;-74
2023/02/15 00:23:26;;;;;;;341.80;44.60;;;;;;;-3.30;100.00;97498.63;2097836;28;20040;-74
2023/02/15 00:24:27;;;;;;;265.15;38.45;;;;;;;-3.20;100.00;97496.44;2081049;28;20045;-74
2023/02/15 00:25:28;;;;;;;265.92;37.13;;;;;;;-3.14;100.00;97500.84;2089673;28;20044;-74
2023/02/15 00:26:30;;;;;;;261.05;37.88;;;;;;;-3.10;100.00;97497.59;2106879;28;20039;-74
2023/02/15 00:27:31;;;;;;;272.05;43.80;;;;;;;-3.04;100.00;97500.28;2106988;28;20062;-74
2023/02/15 00:28:32;;;;;;;218.27;39.67;;;;;;;-3.02;100.00;97498.66;2097758;28;20035;-74
2023/02/15 00:29:34;;;;;;;249.27;45.55;;;;;;;-3.11;100.00;97496.69;2089645;28;20068;-75
2023/02/15 00:30:35;;;;;;;236.82;35.75;;;;;;;-3.21;100.00;97492.16;2089770;28;20048;-75
2023/02/15 00:31:36;;;;;;;225.43;38.30;;;;;;;-3.15;100.00;97504.19;2089846;28;20422;-75
2023/02/15 00:32:37;;;;;;;183.32;38.55;;;;;;;-3.12;100.00;97500.06;2089664;28;20049;-74
2023/02/15 00:33:39;;;;;;;187.13;37.45;;;;;;;-3.21;100.00;97504.00;2089562;28;20044;-74
2023/02/15 00:34:40;;;;;;;165.73;37.67;;;;;;;-3.34;100.00;97490.06;2098048;28;20032;-74
2023/02/15 00:35:41;;;;;;;106.95;27.20;;;;;;;-3.34;100.00;97502.78;2107309;28;20039;-75
2023/02/15 00:36:42;;;;;;;168.25;34.83;;;;;;;-3.35;100.00;97499.34;2107403;28;20047;-74
2023/02/15 00:37:43;;;;;;;181.35;35.13;;;;;;;-3.39;100.00;97497.53;2098161;28;20044;-74
2023/02/15 00:38:45;;;;;;;116.57;32.92;;;;;;;-3.33;100.00;97502.81;2097813;28;20536;-74
2023/02/15 00:39:46;;;;;;;112.00;29.85;;;;;;;-3.40;100.00;97507.66;2107062;28;20043;-74
2023/02/15 00:40:52;;;;;;;115.45;31.27;;;;;;;-3.43;100.00;97505.88;2098131;28;20052;-75
2023/02/15 00:41:53;;;;;;;185.88;35.10;;;;;;;-3.37;100.00;97492.50;2098609;28;20036;-75
2023/02/15 00:42:55;;;;;;;166.80;34.65;;;;;;;-3.35;100.00;97504.44;2097851;28;20063;-75
2023/02/15 00:43:56;;;;;;;176.65;36.47;;;;;;;-3.32;100.00;97499.44;2089734;28;20052;-75
2023/02/15 00:44:57;;;;;;;336.75;44.50;;;;;;;-3.30;100.00;97503.72;2089450;28;20036;-75
2023/02/15 00:45:58;;;;;;;265.63;42.67;;;;;;;-3.23;100.00;97490.41;2089456;28;20048;-74
2023/02/15 00:46:59;;;;;;;170.25;36.55;;;;;;;-3.12;100.00;97500.06;2089770;28;20044;-74
2023/02/15 00:48:00;;;;;;;241.13;40.35;;;;;;;-3.10;100.00;97500.13;2097877;28;20043;-75
2023/02/15 00:49:02;;;;;;;194.07;39.17;;;;;;;-3.07;100.00;97489.16;2106694;28;20074;-74
2023/02/15 00:50:04;;;;;;;298.20;50.88;;;;;;;-3.07;100.00;97490.03;2089607;28;20049;-75
2023/02/15 00:51:05;;;;;;;215.98;39.90;;;;;;;-3.14;100.00;97472.88;2089571;28;20041;-74
2023/02/15 00:52:06;;;;;;;199.73;36.80;;;;;;;-3.09;100.00;97481.50;2106666;28;20047;-75
2023/02/15 00:53:07;;;;;;;289.90;48.85;;;;;;;-3.02;100.00;97490.16;2106159;28;20063;-75
2023/02/15 00:54:08;;;;;;;194.18;35.20;;;;;;;-3.00;100.00;97476.69;2106472;28;20511;-74
2023/02/15 00:55:09;;;;;;;228.02;40.55;;;;;;;-2.99;100.00;97478.41;2097932;28;20118;-73
2023/02/15 00:56:10;;;;;;;271.85;42.80;;;;;;;-3.08;100.00;97462.88;2097761;28;20045;-74
2023/02/15 00:57:11;;;;;;;142.25;28.88;;;;;;;-3.18;100.00;97486.28;2106637;28;20067;-74
2023/02/15 00:58:13;;;;;;;186.65;39.10;;;;;;;-3.24;100.00;97483.56;2106731;28;20036;-74
2023/02/15 00:59:14;;;;;;;167.65;35.00;;;;;;;-3.31;100.00;97474.91;2097784;28;20063;-74
2023/02/15 01:00:15;;;;;;;237.77;41.72;;;;;;;-3.28;100.00;97477.53;2097470;28;20476;-75
2023/02/15 01:01:17;;;;;;;222.68;36.55;;;;;;;-3.34;100.00;97480.78;2097782;28;20044;-74
2023/02/15 01:02:19;;;;;;;235.45;41.90;;;;;;;-3.35;100.00;97463.78;2089662;28;20037;-74
2023/02/15 01:03:21;;;;;;;219.23;38.08;;;;;;;-3.34;100.00;97475.69;2081131;28;20041;-74
2023/02/15 01:04:22;;;;;;;206.95;36.17;;;;;;;-3.44;100.00;97471.13;2081257;28;20049;-74
2023/02/15 01:05:24;;;;;;;412.83;49.92;;;;;;;-3.61;100.00;97465.53;2089433;28;20052;-74
2023/02/15 01:06:25;;;;;;;420.13;52.70;;;;;;;-3.47;100.00;97475.25;2097531;28;20041;-75
2023/02/15 01:07:26;;;;;;;361.08;51.00;;;;;;;-3.45;100.00;97477.00;2097791;28;20492;-75
2023/02/15 01:08:27;;;;;;;290.08;45.50;;;;;;;-3.39;100.00;97464.53;2097643;28;20043;-75
2023/02/15 01:09:28;;;;;;;213.82;34.33;;;;;;;-3.34;100.00;97473.16;2106524;28;20048;-75
2023/02/15 01:10:30;;;;;;;203.45;36.75;;;;;;;-3.29;100.00;97473.25;2106585;28;20035;-75
2023/02/15 01:11:32;;;;;;;244.27;43.05;;;;;;;-3.32;100.00;97474.03;2097722;28;20451;-75
2023/02/15 01:12:33;;;;;;;334.02;47.28;;;;;;;-3.37;100.00;97467.97;2089214;28;20032;-75
2023/02/15 01:13:34;;;;;;;488.95;67.70;;;;;;;-3.33;100.00;97471.47;2097544;28;20420;-75
2023/02/15 01:14:36;;;;;;;252.45;38.88;;;;;;;-3.34;100.00;97470.59;2106616;28;20040;-75
2023/02/15 01:15:37;;;;;;;540.40;64.28;;;;;;;-3.33;100.00;97474.00;2097548;28;20053;-75
2023/02/15 01:16:38;;;;;;;480.40;55.95;;;;;;;-3.30;100.00;97461.38;2089209;28;20049;-75
2023/02/15 01:17:40;;;;;;;195.15;33.40;;;;;;;-3.27;100.00;97460.63;2097699;28;20059;-74
2023/02/15 01:18:41;;;;;;;216.02;35.35;;;;;;;-3.24;100.00;97465.78;2089174;28;20477;-75
2023/02/15 01:19:42;;;;;;;276.45;39.70;;;;;;;-3.22;100.00;97459.94;2089075;28;20547;-75
2023/02/15 01:20:43;;;;;;;211.00;34.72;;;;;;;-3.26;100.00;97447.97;2097831;28;20043;-75
2023/02/15 01:21:44;;;;;;;137.80;29.27;;;;;;;-3.19;100.00;97460.03;2097654;28;20045;-74
2023/02/15 01:22:46;;;;;;;274.80;45.20;;;;;;;-3.20;100.00;97455.78;2097543;28;20041;-75
2023/02/15 01:23:47;;;;;;;242.85;44.85;;;;;;;-3.21;100.00;97455.72;2106507;28;20043;-75
2023/02/15 01:24:51;;;;;;;187.52;38.90;;;;;;;-3.16;100.00;97455.03;2106752;28;20036;-75
2023/02/15 01:25:52;;;;;;;186.18;38.83;;;;;;;-3.16;100.00;97452.50;2106531;28;20097;-74
2023/02/15 01:26:53;;;;;;;301.77;48.80;;;;;;;-3.27;100.00;97437.75;2097742;28;20504;-75
2023/02/15 01:27:54;;;;;;;326.60;46.40;;;;;;;-3.17;100.00;97447.38;2089443;28;20048;-75
2023/02/15 01:28:56;;;;;;;202.68;38.55;;;;;;;-3.18;100.00;97458.34;2097583;28;20044;-75
2023/02/15 01:29:57;;;;;;;216.73;35.78;;;;;;;-3.25;100.00;97466.63;2096904;28;20048;-75
2023/02/15 01:30:59;;;;;;;279.70;40.40;;;;;;;-3.29;100.00;97459.69;2097530;28;20119;-75
2023/02/15 01:32:00;;;;;;;180.25;34.80;;;;;;;-3.28;100.00;97462.31;2097652;28;20047;-75
2023/02/15 01:33:01;;;;;;;259.17;40.25;;;;;;;-3.24;100.00;97456.47;2089141;28;20045;-75
2023/02/15 01:34:05;;;;;;;368.58;56.33;;;;;;;-3.18;100.00;97458.34;2097717;28;20052;-75
2023/02/15 01:35:06;;;;;;;354.15;53.10;;;;;;;-3.15;100.00;97461.84;2097736;28;20033;-75
2023/02/15 01:36:07;;;;;;;229.13;41.60;;;;;;;-3.14;100.00;97461.03;2097386;28;20044;-75
2023/02/15 01:37:08;;;;;;;285.10;41.63;;;;;;;-3.16;100.00;97455.03;2097542;28;20040;-75
2023/02/15 01:38:09;;;;;;;192.10;36.28;;;;;;;-3.16;100.00;97456.72;2097488;28;20055;-75
2023/02/15 01:39:12;;;;;;;292.05;46.42;;;;;;;-3.13;100.00;97459.34;2097776;28;20045;-75
2023/02/15 01:40:15;;;;;;;506.83;62.08;;;;;;;-3.12;100.00;97456.00;2097594;28;20052;-74
2023/02/15 01:41:26;;;;;;;379.20;53.60;;;;;;;-3.18;100.00;97436.34;2081493;28;20041;-75
2023/02/15 01:42:29;;;;;;;265.42;43.20;;;;;;;-3.11;100.00;97456.03;2091902;28;20037;-75
2023/02/15 01:43:40;;;;;;;169.00;34.40;;;;;;;-3.09;100.00;97453.53;2097389;28;20135;-75
2023/02/15 01:44:51;;;;;;;180.20;36.20;;;;;;;-3.09;100.00;97456.09;2091026;28;20037;-75
2023/02/15 01:45:53;;;;;;;207.93;38.97;;;;;;;-3.08;100.00;97446.78;2082835;28;20042;-75
2023/02/15 01:46:55;;;;;;;106.40;29.33;;;;;;;-3.09;100.00;97451.00;2081340;28;20041;-75
2023/02/15 01:48:02;;;;;;;149.95;34.03;;;;;;;-3.07;100.00;97448.50;2065016;28;20541;-75
2023/02/15 01:49:24;;;;;;;154.90;35.60;;;;;;;-3.03;100.00;97450.31;2075510;28;20045;-75
2023/02/15 01:50:38;;;;;;;154.85;33.92;;;;;;;-3.04;100.00;97451.16;2092275;28;20045;-75
2023/02/15 01:51:39;;;;;;;287.77;42.25;;;;;;;-3.05;100.00;97450.25;2091013;28;20048;-75
2023/02/15 01:52:47;;;;;;;165.95;30.58;;;;;;;-3.08;100.00;97449.31;2089125;28;20041;-75
2023/02/15 01:53:57;;;;;;;320.17;47.47;;;;;;;-3.12;100.00;97440.75;2090291;28;20056;-75
2023/02/15 01:54:59;;;;;;;190.07;35.25;;;;;;;-3.20;100.00;97444.75;2082172;28;20045;-75
2023/02/15 01:56:02;;;;;;;222.82;38.63;;;;;;;-3.26;100.00;97444.53;2080933;28;20049;-75
2023/02/15 01:57:06;;;;;;;148.10;32.50;;;;;;;-3.30;100.00;97441.06;2080883;28;20044;-75
2023/02/15 01:58:07;;;;;;;218.73;38.90;;;;;;;-3.27;100.00;97442.84;2057806;28;20422;-74
2023/02/15 01:59:11;;;;;;;128.30;34.08;;;;;;;-3.25;100.00;97443.75;2064876;28;20066;-75
2023/02/15 02:00:13;;;;;;;174.57;39.47;;;;;;;-3.21;100.00;97441.31;2081871;28;20045;-74
2023/02/15 02:01:14;;;;;;;140.50;31.42;;;;;;;-3.16;100.00;97444.88;2080763;28;20042;-75
2023/02/15 02:02:15;;;;;;;82.72;27.65;;;;;;;-3.20;100.00;97427.81;2080979;28;20048;-75
2023/02/15 02:03:16;;;;;;;102.50;31.83;;;;;;;-3.12;100.00;97440.75;2080824;28;20045;-75
2023/02/15 02:04:23;;;;;;;95.10;27.52;;;;;;;-3.11;100.00;97442.47;2089062;28;20051;-75
2023/02/15 02:05:24;;;;;;;164.45;36.65;;;;;;;-3.10;100.00;97444.22;2090612;28;20394;-75
2023/02/15 02:06:26;;;;;;;126.75;32.78;;;;;;;-3.13;100.00;97441.56;2082710;28;20405;-75
2023/02/15 02:07:27;;;;;;;166.38;29.92;;;;;;;-3.21;100.00;97430.31;2090906;28;20048;-75
2023/02/15 02:08:29;;;;;;;244.75;38.50;;;;;;;-3.23;100.00;97437.91;2099182;28;20028;-75
2023/02/15 02:09:30;;;;;;;270.27;46.70;;;;;;;-3.21;100.00;97438.78;2090787;28;20124;-75
2023/02/15 02:10:31;;;;;;;240.20;42.05;;;;;;;-3.23;100.00;97437.03;2074213;28;20049;-75
2023/02/15 02:11:32;;;;;;;112.85;30.77;;;;;;;-3.23;100.00;97439.59;2082443;28;20477;-75
2023/02/15 02:12:33;;;;;;;256.05;44.45;;;;;;;-3.23;100.00;97435.34;2082701;28;20033;-75
2023/02/15 02:13:35;;;;;;;209.43;35.88;;;;;;;-3.28;100.00;97436.91;2082832;28;20049;-75
2023/02/15 02:14:38;;;;;;;192.45;39.25;;;;;;;-3.36;100.00;97436.66;2090944;28;20041;-75
2023/02/15 02:16:07;;;;;;;266.63;42.67;;;;;;;-3.37;100.00;97434.06;2090610;28;20029;-75
2023/02/15 02:17:49;;;;;;;181.15;38.70;;;;;;;-3.28;100.00;97443.66;2071648;28;20057;-75
2023/02/15 02:19:08;;;;;;;153.68;28.17;;;;;;;-3.41;100.00;97443.28;2073773;28;20453;-76
2023/02/15 02:20:15;;;;;;;152.60;34.40;;;;;;;-3.38;100.00;97450.13;2073911;28;20046;-75
2023/02/15 02:21:40;;;;;;;200.00;37.08;;;;;;;-3.40;100.00;97439.91;2093401;28;20051;-75
2023/02/15 02:22:53;;;;;;;277.77;42.45;;;;;;;-3.32;100.00;97446.09;2099510;28;20040;-78
2023/02/15 02:24:12;;;;;;;127.47;33.13;;;;;;;-3.30;100.00;97435.13;2100622;28;20041;-77
2023/02/15 02:25:49;;;;;;;117.32;30.50;;;;;;;-3.37;100.00;97444.22;2090661;28;20488;-78
2023/02/15 02:27:12;;;;;;;153.70;36.00;;;;;;;-3.46;100.00;97437.19;2101131;28;20032;-78
2023/02/15 02:28:39;;;;;;;160.18;34.15;;;;;;;-3.56;100.00;97436.03;2092554;28;20036;-77
2023/02/15 02:30:04;;;;;;;197.88;35.13;;;;;;;-3.50;100.00;97437.94;2092251;28;20554;-79
2023/02/15 02:31:38;;;;;;;106.72;28.58;;;;;;;-3.56;100.00;97420.81;2094950;28;20507;-78
2023/02/15 02:33:17;;;;;;;177.77;31.38;;;;;;;-3.49;100.00;97438.78;2099103;28;20045;-78
2023/02/15 02:34:43;;;;;;;135.27;31.77;;;;;;;-3.52;100.00;97433.63;2104640;28;20035;-77
2023/02/15 02:36:08;;;;;;;95.95;26.35;;;;;;;-3.55;100.00;97431.84;2090717;28;20045;-78
2023/02/15 02:37:37;;;;;;;132.02;30.02;;;;;;;-3.64;100.00;97426.47;2100348;28;20426;-78
2023/02/15 02:38:57;;;;;;;273.08;34.63;;;;;;;-3.58;100.00;97434.31;2082395;28;20045;-78
2023/02/15 02:40:22;;;;;;;154.45;30.20;;;;;;;-3.48;100.00;97428.66;2091659;28;20060;-78
2023/02/15 02:41:30;;;;;;;329.25;45.53;;;;;;;-3.61;100.00;97422.38;2082228;28;20041;-77
2023/02/15 02:42:43;;;;;;;277.30;40.70;;;;;;;-3.78;100.00;97408.28;2069274;28;20038;-78
2023/02/15 02:43:50;;;;;;;294.05;43.25;;;;;;;-3.76;100.00;97424.44;2085643;28;20107;-78
2023/02/15 02:45:15;;;;;;;263.85;37.65;;;;;;;-3.68;100.00;97414.50;2099849;28;20408;-77
2023/02/15 02:46:28;;;;;;;245.93;35.30;;;;;;;-3.72;100.00;97395.75;2082410;28;20049;-78
2023/02/15 02:47:36;;;;;;;202.57;39.05;;;;;;;-3.53;100.00;97430.19;2079393;28;20034;-78
2023/02/15 02:48:37;;;;;;;269.05;42.75;;;;;;;-3.46;100.00;97433.81;2091787;28;20432;-77
2023/02/15 02:49:40;;;;;;;170.70;31.15;;;;;;;-3.59;100.00;97430.03;2090392;28;20040;-78
2023/02/15 02:50:41;;;;;;;127.95;31.90;;;;;;;-3.68;100.00;97425.53;2090903;28;20064;-78
2023/02/15 02:51:42;;;;;;;217.30;38.75;;;;;;;-3.69;100.00;97425.47;2107607;28;20032;-78
2023/02/15 02:52:45;;;;;;;324.00;48.30;;;;;;;-3.70;100.00;97422.06;2098540;28;20391;-77
2023/02/15 02:53:47;;;;;;;163.57;32.95;;;;;;;-3.70;100.00;97429.69;2098698;28;20040;-78
2023/02/15 02:54:48;;;;;;;150.60;34.63;;;;;;;-3.68;100.00;97427.22;2098716;28;20044;-78
2023/02/15 02:55:54;;;;;;;309.13;41.40;;;;;;;-3.68;100.00;97427.22;2074104;28;20049;-78
2023/02/15 02:56:55;;;;;;;275.70;40.08;;;;;;;-3.67;100.00;97422.16;2083887;28;20477;-75
2023/02/15 02:58:19;;;;;;;282.63;40.78;;;;;;;-3.67;100.00;97434.00;2082309;28;20033;-75
2023/02/15 02:59:24;;;;;;;454.00;51.28;;;;;;;-3.66;100.00;97415.41;2096941;28;20067;-75
2023/02/15 03:00:25;;;;;;;217.73;32.10;;;;;;;-3.53;100.00;97424.25;2082179;28;20041;-75
2023/02/15 03:01:28;;;;;;;178.13;30.75;;;;;;;-3.47;100.00;97421.94;2074487;28;20041;-75
2023/02/15 03:02:32;;;;;;;159.60;30.17;;;;;;;-3.43;100.00;97422.03;2082642;28;20045;-75
2023/02/15 03:03:50;;;;;;;149.18;29.27;;;;;;;-3.42;100.00;97417.81;2090710;28;20041;-74
2023/02/15 03:04:58;;;;;;;145.20;28.67;;;;;;;-3.44;100.00;97417.78;2084416;28;20046;-75
2023/02/15 03:06:01;;;;;;;225.25;38.95;;;;;;;-3.40;100.00;97429.75;2068816;28;20050;-75
2023/02/15 03:07:07;;;;;;;264.83;39.28;;;;;;;-3.39;100.00;97413.72;2074800;28;20026;-75
2023/02/15 03:08:09;;;;;;;411.55;54.00;;;;;;;-3.40;100.00;97411.13;2074610;28;20046;-75
2023/02/15 03:09:16;;;;;;;245.95;38.40;;;;;;;-3.37;100.00;97411.19;2066244;28;20104;-75
2023/02/15 03:10:18;;;;;;;88.10;24.88;;;;;;;-3.33;100.00;97418.13;2092029;28;20510;-75
2023/02/15 03:11:19;;;;;;;270.83;44.58;;;;;;;-3.29;100.00;97421.59;2107526;28;20040;-75
2023/02/15 03:12:23;;;;;;;176.52;38.22;;;;;;;-3.30;100.00;97418.19;2090200;28;20047;-75
2023/02/15 03:13:24;;;;;;;115.30;28.80;;;;;;;-3.31;100.00;97411.41;2082720;28;20056;-75
2023/02/15 03:14:25;;;;;;;271.17;43.97;;;;;;;-3.34;100.00;97407.09;2090282;28;20044;-75
2023/02/15 03:16:25;;;;;;;262.88;42.92;;;;;;;-3.25;100.00;97416.66;2098577;28;20033;-75
2023/02/15 03:16:52;;;;;;;249.57;41.28;;;;;;;-3.31;100.00;97396.16;2097962;28;20052;-78
2023/02/15 03:17:57;;;;;;;81.25;24.30;;;;;;;-3.24;100.00;97410.75;2085192;28;20037;-78
2023/02/15 03:19:01;;;;;;;141.38;34.42;;;;;;;-3.23;100.00;97416.72;2074326;28;20048;-78
2023/02/15 03:20:15;;;;;;;158.95;34.17;;;;;;;-3.21;100.00;97412.53;2075168;28;20136;-78
2023/02/15 03:21:21;;;;;;;135.68;31.40;;;;;;;-3.30;100.00;97386.84;2077016;28;20394;-78
2023/02/15 03:22:33;;;;;;;110.40;26.92;;;;;;;-3.25;100.00;97403.94;2067249;28;20467;-78
2023/02/15 03:23:34;;;;;;;151.90;29.85;;;;;;;-3.25;100.00;97408.19;2079581;28;20486;-78
2023/02/15 03:24:55;;;;;;;182.68;36.50;;;;;;;-3.29;100.00;97409.75;2081527;28;20405;-78
2023/02/15 03:26:06;;;;;;;80.40;25.23;;;;;;;-3.47;100.00;97415.16;2087774;28;20532;-78
2023/02/15 03:27:12;;;;;;;87.45;23.45;;;;;;;-3.61;100.00;97411.31;2075783;28;20046;-78
2023/02/15 03:28:17;;;;;;;247.00;37.58;;;;;;;-3.61;100.00;97418.94;2076306;28;20045;-78
2023/02/15 03:29:19;;;;;;;454.30;48.55;;;;;;;-3.53;100.00;97416.66;2082524;28;20037;-78
2023/02/15 03:30:21;;;;;;;149.77;24.80;;;;;;;-3.43;100.00;97424.59;2074252;28;20060;-78
2023/02/15 03:31:23;;;;;;;323.52;50.85;;;;;;;-3.40;100.00;97409.44;2090177;28;20033;-78
2023/02/15 03:32:25;;;;;;;157.93;34.88;;;;;;;-3.41;100.00;97402.63;2081851;28;20044;-78
2023/02/15 03:33:26;;;;;;;135.43;31.58;;;;;;;-3.34;100.00;97409.63;2074181;28;20037;-78
2023/02/15 03:34:27;;;;;;;182.32;36.72;;;;;;;-3.33;100.00;97407.94;2082051;28;20420;-78
2023/02/15 03:35:35;;;;;;;95.43;28.30;;;;;;;-3.38;100.00;97394.25;2073788;28;20044;-78
2023/02/15 03:36:44;;;;;;;183.15;34.58;;;;;;;-3.29;100.00;97411.44;2083950;28;20037;-78
2023/02/15 03:37:49;;;;;;;;;;;;;;;-3.28;100.00;97408.09;2083659;28;20045;-78
2023/02/15 03:39:11;;;;;;;98.82;25.33;;;;;;;-3.36;100.00;97403.63;2083306;28;20028;-78
2023/02/15 03:41:45;;;;;;;191.65;32.70;;;;;;;-3.55;100.00;97416.63;2098339;28;20522;-78
2023/02/15 03:42:49;;;;;;;182.52;29.20;;;;;;;-3.56;100.00;97422.50;2093655;28;20051;-78
2023/02/15 03:43:53;;;;;;;298.33;40.45;;;;;;;-3.50;100.00;97409.13;2082665;28;20124;-78
2023/02/15 03:45:00;;;;;;;147.27;30.67;;;;;;;-3.62;100.00;97415.56;2091061;28;20507;-78
2023/02/15 03:46:06;;;;;;;154.48;31.42;;;;;;;-3.59;100.00;97414.78;2098372;28;20048;-78
2023/02/15 03:47:11;;;;;;;178.52;30.30;;;;;;;-3.67;100.00;97421.31;2099414;28;20044;-78
2023/02/15 03:48:12;;;;;;;127.65;30.38;;;;;;;-3.79;100.00;97415.03;2098377;28;20041;-78
2023/02/15 03:49:39;;;;;;;227.85;34.45;;;;;;;-3.76;100.00;97414.28;2090247;28;20487;-78
2023/02/15 03:51:59;;;;;;;231.57;31.92;;;;;;;-3.74;100.00;97409.22;2089990;28;20052;-78
2023/02/15 03:53:01;;;;;;;181.05;32.75;;;;;;;-3.75;100.00;97420.22;2086705;28;20045;-78
2023/02/15 03:54:04;;;;;;;226.23;38.30;;;;;;;-3.82;100.00;97421.72;2081887;28;20119;-78
2023/02/15 03:55:05;;;;;;;189.38;31.05;;;;;;;-3.97;100.00;97400.91;2090115;28;20049;-78
2023/02/15 03:56:06;;;;;;;296.35;43.78;;;;;;;-3.92;100.00;97412.94;2090069;28;20424;-78
2023/02/15 04:03:09;;;;;;;250.18;41.28;;;;;;;-3.78;100.00;97403.19;2073058;28;20052;-78
2023/02/15 04:04:15;;;;;;;277.05;38.88;;;;;;;-3.69;100.00;97412.78;2089408;28;20055;-78
2023/02/15 04:05:16;;;;;;;371.27;42.40;;;;;;;-3.63;100.00;97423.13;2082312;28;20402;-78
2023/02/15 04:06:17;;;;;;;248.15;31.05;;;;;;;-3.61;100.00;97413.88;2090298;28;20044;-78
2023/02/15 04:07:18;;;;;;;361.05;44.55;;;;;;;-3.64;100.00;97411.22;2107227;28;20036;-77
2023/02/15 04:08:19;;;;;;;141.10;26.35;;;;;;;-3.53;100.00;97417.50;2107162;28;20062;-77
2023/02/15 04:10:51;;;;;;;114.65;26.85;;;;;;;-3.50;100.00;97411.66;2107319;28;20036;-77
2023/02/15 04:11:52;;;;;;;288.70;38.90;;;;;;;-3.62;100.00;97397.78;2107171;28;20044;-77
2023/02/15 04:12:54;;;;;;;233.57;43.13;;;;;;;-3.51;100.00;97415.88;2107038;28;20032;-77
2023/02/15 04:13:56;;;;;;;191.85;35.38;;;;;;;-3.55;100.00;97414.06;2107144;28;20040;-77
2023/02/15 04:16:16;;;;;;;129.55;31.35;;;;;;;-3.63;100.00;97395.22;2107289;28;20494;-78
2023/02/15 04:17:17;;;;;;;108.22;27.83;;;;;;;-3.52;100.00;97423.47;2098260;28;20032;-76
2023/02/15 04:18:18;;;;;;;158.43;30.02;;;;;;;-3.53;100.00;97420.03;2098010;28;20037;-75
2023/02/15 04:25:58;;;;;;;118.72;27.73;;;;;;;-3.59;100.00;97425.78;2107019;28;20134;-78
2023/02/15 04:26:59;;;;;;;128.25;31.55;;;;;;;-3.70;100.00;97418.69;2106974;28;20044;-77
2023/02/15 04:28:00;;;;;;;202.63;35.22;;;;;;;-3.82;100.00;97409.00;2106324;28;20051;-77
2023/02/15 04:29:01;;;;;;;254.05;39.20;;;;;;;-3.75;100.00;97425.28;2106535;28;20032;-77
2023/02/15 04:30:03;;;;;;;267.92;41.60;;;;;;;-3.78;100.00;97415.91;2106852;28;20039;-77
2023/02/15 04:31:04;;;;;;;356.08;40.72;;;;;;;-3.71;100.00;97422.03;2106742;28;20475;-78
2023/02/15 04:32:06;;;;;;;280.38;43.92;;;;;;;-3.65;100.00;97414.59;2097967;28;20032;-78
2023/02/15 04:33:07;;;;;;;262.55;39.95;;;;;;;-3.69;100.00;97418.69;2097916;28;20495;-78
2023/02/15 04:34:09;;;;;;;128.23;30.85;;;;;;;-3.72;100.00;97420.28;2106937;28;20039;-77
2023/02/15 04:35:11;;;;;;;179.32;27.98;;;;;;;-3.67;100.00;97423.84;2106891;28;20036;-78
2023/02/15 04:36:12;;;;;;;231.50;36.35;;;;;;;-3.66;100.00;97421.38;2106924;28;20048;-78
2023/02/15 04:37:13;;;;;;;248.65;38.53;;;;;;;-3.61;100.00;97421.47;2106782;28;20044;-78
2023/02/15 04:38:14;;;;;;;265.88;42.45;;;;;;;-3.65;100.00;97417.13;2107108;28;20051;-77
2023/02/15 04:39:15;;;;;;;252.05;40.95;;;;;;;-3.72;100.00;97405.06;2098042;28;20484;-77
2023/02/15 04:40:17;;;;;;;181.20;30.65;;;;;;;-3.67;100.00;97419.63;2097925;28;20040;-78
2023/02/15 04:41:18;;;;;;;184.30;32.00;;;;;;;-3.62;100.00;97412.16;2106879;28;20039;-78
2023/02/15 04:42:19;;;;;;;301.85;44.88;;;;;;;-3.63;100.00;97418.06;2106837;28;20036;-77
2023/02/15 04:43:20;;;;;;;378.95;53.75;;;;;;;-3.69;100.00;97412.78;2106741;28;20032;-78
2023/02/15 04:44:21;;;;;;;371.20;55.05;;;;;;;-3.74;100.00;97414.31;2097816;28;20037;-77
2023/02/15 04:45:22;;;;;;;281.80;42.00;;;;;;;-3.74;100.00;97414.31;2097838;28;20035;-78
2023/02/15 04:46:23;;;;;;;271.35;44.05;;;;;;;-3.88;100.00;97407.13;2106799;28;20036;-78
2023/02/15 04:47:25;;;;;;;182.75;36.55;;;;;;;-3.80;100.00;97413.28;2106767;28;20032;-77
2023/02/15 04:48:26;;;;;;;220.80;39.90;;;;;;;-3.76;100.00;97414.28;2097600;28;20040;-78
2023/02/15 04:49:27;;;;;;;251.38;43.05;;;;;;;-3.70;100.00;97414.44;2089627;28;20432;-77
2023/02/15 04:50:28;;;;;;;195.48;39.33;;;;;;;-3.68;100.00;97407.75;2097792;28;20032;-77
2023/02/15 04:51:29;;;;;;;221.18;40.72;;;;;;;-3.74;100.00;97399.97;2097646;28;20047;-77
2023/02/15 04:52:30;;;;;;;157.98;35.15;;;;;;;-3.84;100.00;97413.16;2089421;28;20040;-78
2023/02/15 04:53:32;;;;;;;150.40;37.53;;;;;;;-3.81;100.00;97416.66;2097714;28;20495;-78
2023/02/15 04:54:33;;;;;;;152.95;35.90;;;;;;;-3.84;100.00;97416.56;2097852;28;20528;-78
2023/02/15 04:55:34;;;;;;;150.45;31.38;;;;;;;-3.82;100.00;97414.09;2097943;28;20029;-78
2023/02/15 04:56:37;;;;;;;235.60;39.13;;;;;;;-3.82;100.00;97417.47;2106665;28;20039;-78
2023/02/15 04:57:38;;;;;;;228.07;37.50;;;;;;;-3.87;100.00;97415.63;2097692;28;20432;-78
2023/02/15 04:58:42;;;;;;;160.20;35.05;;;;;;;-3.93;100.00;97415.41;2097982;28;20041;-78
2023/02/15 04:59:43;;;;;;;274.25;39.75;;;;;;;-4.05;100.00;97420.97;2106701;28;20040;-78
2023/02/15 05:00:44;;;;;;;326.38;41.28;;;;;;;-4.03;100.00;97411.72;2096853;28;20056;-77
2023/02/15 05:01:45;;;;;;;249.63;37.13;;;;;;;-4.02;100.00;97415.97;2097650;28;20041;-78
2023/02/15 05:02:46;;;;;;;262.38;42.78;;;;;;;-4.00;100.00;97417.75;2106614;28;20139;-78
2023/02/15 05:03:47;;;;;;;227.40;41.55;;;;;;;-4.01;100.00;97397.38;2106764;28;20035;-77
2023/02/15 05:04:49;;;;;;;177.50;39.03;;;;;;;-3.86;100.00;97409.72;2106808;28;20044;-78
2023/02/15 05:05:50;;;;;;;181.68;40.17;;;;;;;-3.78;100.00;97410.81;2106988;28;20365;-77
2023/02/15 05:06:51;;;;;;;92.22;27.65;;;;;;;-3.80;100.00;97403.13;2106544;28;20420;-77
2023/02/15 05:07:52;;;;;;;93.03;30.33;;;;;;;-3.89;100.00;97399.47;2106844;28;20093;-77
2023/02/15 05:08:53;;;;;;;268.83;44.78;;;;;;;-3.91;100.00;97401.09;2106601;28;20135;-78